Time;durP1;ratioP1;P1;durP2;ratioP2;P2;SDS_P1;SDS_P2;PMS_P1;PMS_P2;Temp;Humidity;BMP_temperature;BMP_pressure;BME280_temperature;BME280_humidity;BME280_pressure;Samples;Min_cycle;Max_cycle;Signal;HPM_P1;HPM_P2
2022/01/12 00:00:52;;;;;;;7.60;4.03;;;;;;;;;;5025441;28;20392;-37
2022/01/12 00:03:17;;;;;;;5.60;3.47;;;;;;;;;;5024863;28;20025;-37
2022/01/12 00:05:43;;;;;;;6.10;3.85;;;;;;;;;;5025139;28;20060;-30
2022/01/12 00:08:09;;;;;;;6.28;3.90;;;;;;;;;;5024869;28;20026;-37
2022/01/12 00:10:34;;;;;;;6.00;3.80;;;;;;;;;;5024812;28;20045;-37
2022/01/12 00:13:00;;;;;;;4.93;3.53;;;;;;;;;;5025296;28;20053;-37
2022/01/12 00:15:26;;;;;;;6.15;3.70;;;;;;;;;;5025321;28;20026;-39
2022/01/12 00:17:51;;;;;;;5.20;3.70;;;;;;;;;;5025104;28;20407;-39
2022/01/12 00:20:17;;;;;;;5.38;3.47;;;;;;;;;;5025118;28;20211;-37
2022/01/12 00:22:43;;;;;;;5.20;3.65;;;;;;;;;;5023029;28;20596;-36
2022/01/12 00:33:16;;;;;;;5.65;4.03;;;;;;;;;;5025133;28;20056;-38
2022/01/12 00:35:46;;;;;;;5.45;3.33;;;;;;;;;;5024830;28;20037;-37
2022/01/12 00:38:12;;;;;;;4.57;3.67;;;;;;;;;;5024817;28;20057;-33
2022/01/12 00:40:40;;;;;;;5.22;3.38;;;;;;;;;;5025050;28;20033;-38
2022/01/12 00:43:06;;;;;;;4.80;3.40;;;;;;;;;;5028750;28;20503;-32
2022/01/12 00:45:34;;;;;;;4.97;3.63;;;;;;;;;;5028625;28;20040;-37
2022/01/12 00:48:00;;;;;;;5.43;3.40;;;;;;;;;;5028495;28;20059;-36
2022/01/12 00:50:28;;;;;;;5.07;3.40;;;;;;;;;;5028551;28;20472;-35
2022/01/12 00:52:53;;;;;;;4.63;3.50;;;;;;;;;;5027917;28;20053;-38
2022/01/12 00:55:19;;;;;;;5.00;3.47;;;;;;;;;;5027869;28;20495;-38
2022/01/12 00:57:44;;;;;;;4.68;3.17;;;;;;;;;;5027943;28;20456;-37
2022/01/12 01:00:10;;;;;;;4.45;3.50;;;;;;;;;;5028496;28;20109;-33
2022/01/12 01:02:36;;;;;;;4.13;3.15;;;;;;;;;;5028140;28;20033;-36
2022/01/12 01:05:02;;;;;;;5.97;3.30;;;;;;;;;;5028220;28;20021;-37
2022/01/12 01:07:28;;;;;;;4.30;3.35;;;;;;;;;;5028078;28;20033;-36
2022/01/12 01:10:04;;;;;;;4.95;3.35;;;;;;;;;;5027899;28;20045;-39
2022/01/12 01:12:30;;;;;;;4.57;2.95;;;;;;;;;;5028231;28;20476;-33
2022/01/12 01:15:07;;;;;;;4.68;3.22;;;;;;;;;;5027639;28;20784;-35
2022/01/12 01:25:46;;;;;;;3.78;2.97;;;;;;;;;;5046843;28;20191;-39
2022/01/12 01:28:12;;;;;;;4.20;3.25;;;;;;;;;;5047564;28;20488;-39
2022/01/12 01:30:39;;;;;;;3.97;3.05;;;;;;;;;;5047552;28;20033;-35
2022/01/12 01:33:07;;;;;;;4.25;2.85;;;;;;;;;;5047264;28;20112;-38
2022/01/12 01:35:34;;;;;;;3.90;3.33;;;;;;;;;;5047560;28;20033;-37
2022/01/12 01:38:01;;;;;;;3.65;2.90;;;;;;;;;;5047501;28;20528;-38
2022/01/12 01:40:27;;;;;;;4.68;3.05;;;;;;;;;;5041180;28;20443;-34
2022/01/12 01:53:41;;;;;;;4.13;2.70;;;;;;;;;;5026491;28;20514;-35
2022/01/12 01:56:07;;;;;;;3.42;2.80;;;;;;;;;;5030827;28;20056;-33
2022/01/12 01:58:32;;;;;;;3.85;2.80;;;;;;;;;;5047212;28;20028;-38
2022/01/12 02:00:58;;;;;;;3.88;3.05;;;;;;;;;;5047117;28;20499;-33
2022/01/12 02:03:29;;;;;;;4.90;3.08;;;;;;;;;;5046693;28;20686;-39
2022/01/12 02:05:54;;;;;;;4.80;3.15;;;;;;;;;;5047235;28;20570;-39
2022/01/12 02:08:20;;;;;;;3.22;2.38;;;;;;;;;;5045480;28;20044;-35
2022/01/12 02:10:45;;;;;;;3.63;2.80;;;;;;;;;;5044672;28;20159;-39
2022/01/12 02:13:11;;;;;;;3.10;2.47;;;;;;;;;;5046692;28;20040;-37
2022/01/12 02:15:37;;;;;;;3.65;2.80;;;;;;;;;;5046064;28;20537;-33
2022/01/12 02:39:44;;;;;;;3.72;2.53;;;;;;;;;;5046398;28;20048;-35
2022/01/12 02:40:01;;;;;;;2.80;2.50;;;;;;;;;;5046375;28;20021;-35
2022/01/12 02:42:27;;;;;;;3.45;2.70;;;;;;;;;;5045992;28;20059;-35
2022/01/12 02:55:49;;;;;;;2.88;2.35;;;;;;;;;;5046010;28;20601;-33
2022/01/12 02:58:15;;;;;;;2.63;2.17;;;;;;;;;;5046062;28;20014;-39
2022/01/12 03:03:23;;;;;;;3.00;2.22;;;;;;;;;;5044709;28;20029;-30
2022/01/12 03:05:57;;;;;;;2.60;2.10;;;;;;;;;;5045063;28;20032;-40
2022/01/12 03:08:25;;;;;;;2.65;2.30;;;;;;;;;;5045644;28;20128;-37
2022/01/12 03:10:50;;;;;;;3.03;2.20;;;;;;;;;;5045940;28;20048;-38
2022/01/12 03:13:16;;;;;;;3.10;2.60;;;;;;;;;;5045611;28;20200;-36
2022/01/12 03:15:42;;;;;;;2.95;2.15;;;;;;;;;;5045517;28;20036;-36
2022/01/12 03:18:07;;;;;;;2.63;2.25;;;;;;;;;;5045656;28;20099;-39
2022/01/12 03:20:33;;;;;;;2.70;2.33;;;;;;;;;;5045231;28;20078;-35
2022/01/12 03:22:59;;;;;;;3.55;2.67;;;;;;;;;;5045112;28;20037;-38
2022/01/12 03:25:25;;;;;;;3.45;2.60;;;;;;;;;;5045608;28;20033;-36
2022/01/12 03:27:56;;;;;;;2.75;2.13;;;;;;;;;;5044924;28;20435;-34
2022/01/12 03:30:21;;;;;;;2.92;2.15;;;;;;;;;;5045176;28;20021;-35
2022/01/12 03:33:01;;;;;;;2.50;2.30;;;;;;;;;;5045763;28;20032;-30
2022/01/12 04:08:27;;;;;;;2.67;2.35;;;;;;;;;;5044891;28;20130;-39
2022/01/12 04:10:58;;;;;;;2.53;2.13;;;;;;;;;;5044900;28;20025;-35
2022/01/12 04:13:26;;;;;;;2.72;2.30;;;;;;;;;;5045156;28;20035;-38
2022/01/12 04:15:53;;;;;;;2.47;2.20;;;;;;;;;;5046122;28;20029;-33
2022/01/12 04:18:19;;;;;;;2.60;2.10;;;;;;;;;;5048914;28;20430;-33
2022/01/12 04:20:49;;;;;;;2.53;2.20;;;;;;;;;;5049205;28;20029;-35
2022/01/12 04:23:21;;;;;;;2.88;2.25;;;;;;;;;;5048347;28;20048;-37
2022/01/12 04:25:48;;;;;;;2.58;2.20;;;;;;;;;;5048906;28;20033;-35
2022/01/12 04:28:14;;;;;;;2.72;2.33;;;;;;;;;;5049046;28;20111;-38
2022/01/12 04:30:39;;;;;;;2.47;2.00;;;;;;;;;;5047874;28;20547;-33
2022/01/12 04:33:05;;;;;;;2.90;2.17;;;;;;;;;;5048987;28;20040;-33
2022/01/12 04:35:34;;;;;;;2.22;1.90;;;;;;;;;;5048529;28;20024;-35
2022/01/12 04:38:00;;;;;;;3.28;2.03;;;;;;;;;;5048780;28;20904;-35
2022/01/12 04:40:25;;;;;;;2.72;2.35;;;;;;;;;;5047985;28;20044;-34
2022/01/12 04:42:53;;;;;;;2.85;2.30;;;;;;;;;;5048642;28;20154;-35
2022/01/12 04:50:18;;;;;;;2.63;2.13;;;;;;;;;;5028271;28;20072;-39
2022/01/12 04:52:44;;;;;;;3.13;2.40;;;;;;;;;;5028320;28;20018;-37
2022/01/12 04:55:10;;;;;;;2.92;2.20;;;;;;;;;;5028374;28;20030;-39
2022/01/12 04:57:35;;;;;;;2.58;2.15;;;;;;;;;;5028529;28;20022;-39
2022/01/12 05:00:08;;;;;;;2.83;2.53;;;;;;;;;;5027472;28;20053;-38
2022/01/12 05:13:23;;;;;;;2.63;1.83;;;;;;;;;;5027747;28;20040;-38
2022/01/12 05:15:49;;;;;;;3.28;2.08;;;;;;;;;;5028197;28;20057;-35
2022/01/12 05:18:14;;;;;;;2.97;2.35;;;;;;;;;;5028373;28;20428;-35
2022/01/12 05:20:40;;;;;;;2.17;1.98;;;;;;;;;;5028063;28;20032;-37
2022/01/12 05:23:05;;;;;;;2.28;2.08;;;;;;;;;;5027738;28;20099;-39
2022/01/12 05:25:31;;;;;;;2.70;2.25;;;;;;;;;;5028137;28;20030;-33
2022/01/12 05:27:56;;;;;;;4.63;2.40;;;;;;;;;;5026745;28;20523;-30
2022/01/12 05:30:22;;;;;;;5.25;2.38;;;;;;;;;;5027512;28;20029;-36
2022/01/12 05:32:48;;;;;;;5.20;2.30;;;;;;;;;;5028087;28;20068;-30
2022/01/12 05:35:16;;;;;;;4.43;2.50;;;;;;;;;;5027817;28;20026;-30
2022/01/12 05:37:44;;;;;;;5.18;2.40;;;;;;;;;;5027732;28;20447;-32
2022/01/12 05:40:09;;;;;;;8.82;2.88;;;;;;;;;;5027806;28;20022;-39
2022/01/12 05:42:35;;;;;;;6.05;2.42;;;;;;;;;;5027318;28;20034;-32
2022/01/12 05:45:01;;;;;;;3.85;2.45;;;;;;;;;;5027801;28;20025;-37
2022/01/12 05:50:01;;;;;;;6.20;2.53;;;;;;;;;;5026734;28;20053;-39
2022/01/12 05:52:27;;;;;;;5.00;2.22;;;;;;;;;;5026639;28;20021;-33
2022/01/12 05:54:52;;;;;;;8.45;2.80;;;;;;;;;;5026866;28;20050;-31
2022/01/12 05:57:18;;;;;;;3.42;2.70;;;;;;;;;;5026578;28;20037;-36
2022/01/12 05:59:43;;;;;;;3.65;2.22;;;;;;;;;;5026495;28;20526;-38
2022/01/12 06:02:09;;;;;;;7.97;3.10;;;;;;;;;;5026340;28;20021;-37
2022/01/12 06:04:34;;;;;;;3.47;2.85;;;;;;;;;;5024957;28;20469;-33
2022/01/12 06:07:02;;;;;;;6.28;2.38;;;;;;;;;;5026536;28;20057;-36
2022/01/12 06:09:27;;;;;;;7.35;2.50;;;;;;;;;;5026897;28;20149;-39
2022/01/12 06:11:53;;;;;;;3.97;2.45;;;;;;;;;;5026900;28;20079;-39
2022/01/12 06:14:20;;;;;;;10.25;2.58;;;;;;;;;;5026793;28;20039;-38
2022/01/12 06:16:46;;;;;;;3.05;2.25;;;;;;;;;;5026845;28;20511;-39
2022/01/12 06:19:11;;;;;;;3.10;2.67;;;;;;;;;;5027073;28;20042;-33
2022/01/12 06:21:37;;;;;;;4.15;2.80;;;;;;;;;;5028533;28;20212;-36
2022/01/12 06:24:02;;;;;;;3.95;2.80;;;;;;;;;;5026790;28;20512;-37
2022/01/12 06:26:28;;;;;;;5.30;2.70;;;;;;;;;;5026352;28;20029;-35
2022/01/12 06:29:41;;;;;;;4.65;2.90;;;;;;;;;;5026795;28;20049;-36
2022/01/12 06:31:43;;;;;;;3.67;2.58;;;;;;;;;;5018747;28;20041;-35
2022/01/12 06:34:08;;;;;;;4.68;2.90;;;;;;;;;;5027592;28;20125;-38
2022/01/12 06:36:34;;;;;;;3.05;2.42;;;;;;;;;;5034544;28;20491;-34
2022/01/12 06:38:59;;;;;;;4.60;2.80;;;;;;;;;;5037567;28;20418;-32
2022/01/12 06:41:25;;;;;;;3.80;2.80;;;;;;;;;;5045674;28;20056;-36
2022/01/12 06:43:50;;;;;;;3.55;2.60;;;;;;;;;;5044554;28;20024;-33
2022/01/12 06:46:22;;;;;;;5.13;2.80;;;;;;;;;;5015297;28;20159;-33
2022/01/12 06:48:47;;;;;;;4.22;3.15;;;;;;;;;;5043250;28;20122;-35
2022/01/12 06:51:13;;;;;;;3.28;2.70;;;;;;;;;;5034448;28;20531;-35
2022/01/12 06:53:38;;;;;;;3.53;2.55;;;;;;;;;;5034186;28;20037;-30
2022/01/12 06:56:04;;;;;;;4.25;2.90;;;;;;;;;;5045845;28;20693;-36
2022/01/12 06:58:30;;;;;;;4.50;2.88;;;;;;;;;;5045432;28;20029;-39
2022/01/12 07:00:55;;;;;;;3.83;3.22;;;;;;;;;;5037546;28;20021;-38
2022/01/12 07:03:21;;;;;;;5.50;2.65;;;;;;;;;;5044947;28;20062;-35
2022/01/12 07:05:47;;;;;;;22.58;3.45;;;;;;;;;;5044858;28;20024;-38
2022/01/12 07:08:13;;;;;;;4.22;2.83;;;;;;;;;;5037023;28;20056;-32
2022/01/12 07:10:38;;;;;;;4.90;2.70;;;;;;;;;;5042581;28;20031;-34
2022/01/12 07:13:04;;;;;;;3.92;2.80;;;;;;;;;;5042755;28;20037;-30
2022/01/12 07:15:30;;;;;;;6.20;3.00;;;;;;;;;;5043362;28;20064;-34
2022/01/12 07:17:55;;;;;;;4.10;2.95;;;;;;;;;;5028417;28;20434;-32
2022/01/12 07:20:20;;;;;;;4.05;2.90;;;;;;;;;;5027008;28;20036;-33
2022/01/12 07:22:46;;;;;;;4.57;2.83;;;;;;;;;;5032481;28;20090;-31
2022/01/12 07:25:12;;;;;;;3.83;2.58;;;;;;;;;;5028268;28;20036;-35
2022/01/12 07:27:39;;;;;;;3.47;2.83;;;;;;;;;;5028974;28;20041;-33
2022/01/12 07:30:05;;;;;;;3.95;2.72;;;;;;;;;;5021931;28;20076;-38
2022/01/12 07:32:31;;;;;;;4.55;2.72;;;;;;;;;;5023022;28;20476;-34
2022/01/12 07:34:56;;;;;;;3.38;2.67;;;;;;;;;;5031824;28;20068;-31
2022/01/12 07:37:22;;;;;;;6.50;3.10;;;;;;;;;;5024807;28;20671;-39
2022/01/12 07:39:48;;;;;;;4.13;3.03;;;;;;;;;;5022343;28;20041;-37
2022/01/12 07:42:14;;;;;;;3.35;2.25;;;;;;;;;;5027265;28;20059;-30
2022/01/12 07:44:40;;;;;;;4.88;2.80;;;;;;;;;;5034560;28;20064;-33
2022/01/12 07:47:05;;;;;;;4.97;2.90;;;;;;;;;;5038612;28;20132;-39
2022/01/12 07:49:31;;;;;;;3.25;2.80;;;;;;;;;;5042922;28;20115;-32
2022/01/12 07:51:57;;;;;;;7.68;2.60;;;;;;;;;;5041171;28;20033;-39
2022/01/12 07:54:23;;;;;;;5.05;3.08;;;;;;;;;;5035086;28;20428;-35
2022/01/12 07:56:49;;;;;;;9.98;3.42;;;;;;;;;;5036032;28;20529;-39
2022/01/12 07:59:14;;;;;;;4.65;2.75;;;;;;;;;;5042364;28;20039;-38
2022/01/12 08:01:40;;;;;;;15.75;3.10;;;;;;;;;;5027042;28;20045;-35
2022/01/12 08:04:05;;;;;;;20.77;4.28;;;;;;;;;;5024415;28;20033;-37
2022/01/12 08:06:31;;;;;;;58.60;6.75;;;;;;;;;;5024323;28;20025;-38
2022/01/12 08:08:57;;;;;;;75.82;9.23;;;;;;;;;;5041374;28;20049;-40
2022/01/12 08:11:22;;;;;;;56.42;6.45;;;;;;;;;;5039469;28;20063;-38
2022/01/12 08:13:49;;;;;;;34.42;5.50;;;;;;;;;;5044024;28;20029;-40
2022/01/12 08:16:14;;;;;;;24.20;4.47;;;;;;;;;;5040788;28;20108;-39
2022/01/12 08:18:40;;;;;;;26.40;6.55;;;;;;;;;;5038692;28;20116;-40
2022/01/12 08:21:06;;;;;;;35.95;5.68;;;;;;;;;;5027767;28;20076;-37
2022/01/12 08:23:33;;;;;;;17.98;4.25;;;;;;;;;;5033230;28;20040;-38
2022/01/12 08:25:58;;;;;;;36.80;4.60;;;;;;;;;;5041881;28;20087;-39
2022/01/12 08:28:24;;;;;;;19.38;4.65;;;;;;;;;;5041544;28;20037;-41
2022/01/12 08:30:49;;;;;;;22.25;4.25;;;;;;;;;;5040807;28;20052;-35
2022/01/12 08:33:15;;;;;;;24.77;4.25;;;;;;;;;;5036888;28;20095;-39
2022/01/12 08:35:41;;;;;;;19.58;4.15;;;;;;;;;;5040493;28;20563;-39
2022/01/12 08:38:07;;;;;;;14.88;3.78;;;;;;;;;;5041008;28;20037;-36
2022/01/12 08:40:33;;;;;;;16.13;4.30;;;;;;;;;;5037643;28;20673;-40
2022/01/12 08:42:58;;;;;;;33.00;5.13;;;;;;;;;;5032512;28;20035;-38
2022/01/12 08:45:24;;;;;;;13.90;4.55;;;;;;;;;;5042914;28;20165;-39
2022/01/12 08:47:50;;;;;;;16.85;4.18;;;;;;;;;;5043112;28;20103;-37
2022/01/12 08:50:15;;;;;;;14.90;4.32;;;;;;;;;;5027118;28;20029;-39
2022/01/12 08:52:44;;;;;;;15.00;4.30;;;;;;;;;;5022959;28;20045;-39
2022/01/12 08:55:11;;;;;;;13.40;4.40;;;;;;;;;;5023044;28;20743;-37
2022/01/12 08:57:37;;;;;;;13.85;4.57;;;;;;;;;;5021635;28;20108;-37
2022/01/12 09:00:03;;;;;;;15.60;4.15;;;;;;;;;;5022904;28;20462;-40
2022/01/12 09:02:28;;;;;;;19.02;4.05;;;;;;;;;;5025095;28;20543;-39
2022/01/12 09:04:54;;;;;;;14.95;3.65;;;;;;;;;;5025259;28;20022;-37
2022/01/12 09:07:19;;;;;;;12.02;4.25;;;;;;;;;;5025765;28;20021;-39
2022/01/12 09:09:45;;;;;;;10.25;3.50;;;;;;;;;;5026288;28;20535;-39
2022/01/12 09:12:10;;;;;;;12.40;4.50;;;;;;;;;;5027012;28;20134;-39
2022/01/12 09:14:36;;;;;;;11.93;4.00;;;;;;;;;;5027100;28;20523;-40
2022/01/12 09:17:02;;;;;;;8.18;3.03;;;;;;;;;;5026632;28;20570;-36
2022/01/12 09:19:27;;;;;;;10.60;3.55;;;;;;;;;;5027980;28;20036;-33
2022/01/12 09:21:53;;;;;;;10.13;3.97;;;;;;;;;;5027232;28;20560;-38
2022/01/12 09:24:19;;;;;;;9.27;4.10;;;;;;;;;;5027085;28;20025;-33
2022/01/12 09:26:44;;;;;;;13.65;3.72;;;;;;;;;;5026722;28;20021;-34
2022/01/12 09:29:10;;;;;;;10.43;4.43;;;;;;;;;;5027578;28;20167;-41
2022/01/12 09:31:35;;;;;;;7.15;3.70;;;;;;;;;;5027962;28;20091;-36
2022/01/12 09:34:04;;;;;;;7.88;3.40;;;;;;;;;;5027836;28;20025;-36
2022/01/12 09:36:30;;;;;;;11.63;4.47;;;;;;;;;;5027712;28;20117;-35
2022/01/12 09:38:56;;;;;;;11.43;3.83;;;;;;;;;;5026836;28;20091;-35
2022/01/12 09:41:25;;;;;;;7.03;3.42;;;;;;;;;;5027753;28;20450;-40
2022/01/12 09:43:51;;;;;;;9.52;3.25;;;;;;;;;;5027677;28;20452;-38
2022/01/12 09:46:16;;;;;;;5.20;3.40;;;;;;;;;;5027451;28;20025;-37
2022/01/12 09:48:42;;;;;;;10.77;4.00;;;;;;;;;;5027325;28;20048;-39
2022/01/12 09:51:08;;;;;;;9.02;3.67;;;;;;;;;;5027073;28;20030;-38
2022/01/12 09:53:34;;;;;;;9.40;4.00;;;;;;;;;;5027185;28;20037;-40
2022/01/12 09:56:11;;;;;;;7.28;3.60;;;;;;;;;;5027450;28;20029;-38
2022/01/12 09:58:37;;;;;;;6.78;3.65;;;;;;;;;;5027085;28;20041;-34
2022/01/12 10:01:02;;;;;;;8.70;4.35;;;;;;;;;;5027358;28;20033;-39
2022/01/12 10:03:28;;;;;;;4.90;3.42;;;;;;;;;;5027407;28;20029;-39
2022/01/12 10:05:54;;;;;;;6.68;3.25;;;;;;;;;;5027087;28;20026;-39
2022/01/12 10:08:19;;;;;;;6.72;3.95;;;;;;;;;;5026603;28;20140;-36
2022/01/12 10:11:00;;;;;;;9.98;3.83;;;;;;;;;;5026951;28;20043;-40
2022/01/12 10:13:26;;;;;;;4.80;3.65;;;;;;;;;;5026807;28;20080;-37
2022/01/12 10:15:52;;;;;;;6.55;3.42;;;;;;;;;;5026672;28;20868;-39
2022/01/12 10:18:18;;;;;;;8.25;4.10;;;;;;;;;;5027076;28;20033;-38
2022/01/12 10:20:47;;;;;;;8.90;3.92;;;;;;;;;;5026872;28;20506;-34
2022/01/12 10:23:14;;;;;;;5.32;3.55;;;;;;;;;;5026696;28;20137;-38
2022/01/12 10:25:46;;;;;;;4.93;3.58;;;;;;;;;;5026133;28;20056;-39
2022/01/12 10:28:13;;;;;;;9.82;4.03;;;;;;;;;;5025447;28;20511;-39
2022/01/12 10:30:38;;;;;;;4.78;3.47;;;;;;;;;;5026590;28;20037;-37
2022/01/12 10:33:08;;;;;;;6.35;4.20;;;;;;;;;;5025277;28;20679;-38
2022/01/12 10:35:40;;;;;;;7.40;3.85;;;;;;;;;;5026516;28;20772;-36
2022/01/12 10:38:15;;;;;;;7.05;4.45;;;;;;;;;;5026219;28;20041;-36
2022/01/12 10:40:54;;;;;;;7.53;4.38;;;;;;;;;;5025824;28;20044;-37
2022/01/12 10:43:29;;;;;;;8.60;4.90;;;;;;;;;;5024100;28;20072;-37
2022/01/12 10:45:54;;;;;;;8.20;4.80;;;;;;;;;;5026486;28;20105;-37
2022/01/12 10:48:20;;;;;;;7.88;4.35;;;;;;;;;;5026206;28;20068;-37
2022/01/12 10:50:56;;;;;;;6.43;4.63;;;;;;;;;;5024866;28;20030;-40
2022/01/12 10:53:40;;;;;;;9.50;5.28;;;;;;;;;;5026297;28;20018;-37
2022/01/12 10:56:11;;;;;;;7.25;4.93;;;;;;;;;;5026569;28;20033;-36
2022/01/12 10:58:38;;;;;;;9.70;5.43;;;;;;;;;;5045958;28;20051;-34
2022/01/12 11:01:03;;;;;;;7.03;5.30;;;;;;;;;;5039258;28;20554;-40
2022/01/12 11:03:31;;;;;;;8.57;5.47;;;;;;;;;;5037989;28;20072;-41
2022/01/12 11:06:01;;;;;;;8.27;5.75;;;;;;;;;;5045301;28;20029;-39
2022/01/12 11:08:27;;;;;;;8.57;5.85;;;;;;;;;;5045273;28;20056;-38
2022/01/12 11:10:53;;;;;;;7.85;5.55;;;;;;;;;;5045373;28;20032;-39
2022/01/12 11:13:19;;;;;;;8.95;6.00;;;;;;;;;;5044266;28;20411;-40
2022/01/12 11:15:46;;;;;;;9.93;5.95;;;;;;;;;;5045531;28;20017;-41
2022/01/12 11:18:12;;;;;;;7.88;5.68;;;;;;;;;;5045282;28;20048;-40
2022/01/12 11:20:37;;;;;;;8.52;6.07;;;;;;;;;;5032428;28;20040;-35
2022/01/12 11:23:03;;;;;;;8.57;5.72;;;;;;;;;;5007684;28;20075;-40
2022/01/12 11:25:45;;;;;;;10.43;6.00;;;;;;;;;;5024511;28;20033;-38
2022/01/12 11:28:26;;;;;;;7.75;5.68;;;;;;;;;;5025431;28;20408;-37
2022/01/12 11:30:51;;;;;;;8.13;5.70;;;;;;;;;;5025757;28;20022;-36
2022/01/12 11:33:19;;;;;;;8.75;5.75;;;;;;;;;;5025551;28;20439;-39
2022/01/12 11:35:46;;;;;;;8.93;6.25;;;;;;;;;;5025306;28;20056;-37
2022/01/12 11:38:25;;;;;;;8.20;5.82;;;;;;;;;;5024612;28;20060;-37
2022/01/12 11:40:53;;;;;;;9.05;5.78;;;;;;;;;;5025373;28;20397;-39
2022/01/12 11:43:25;;;;;;;9.30;5.78;;;;;;;;;;5023993;28;20033;-39
2022/01/12 11:46:14;;;;;;;8.02;5.28;;;;;;;;;;5025613;28;20041;-36
2022/01/12 11:48:53;;;;;;;7.82;5.45;;;;;;;;;;5025009;28;20029;-38
2022/01/12 11:51:44;;;;;;;9.13;5.90;;;;;;;;;;5025634;28;20381;-33
2022/01/12 11:54:17;;;;;;;7.93;5.68;;;;;;;;;;5040870;28;20686;-39
2022/01/12 11:56:54;;;;;;;8.55;5.95;;;;;;;;;;5045051;28;20032;-41
2022/01/12 11:59:20;;;;;;;8.10;5.63;;;;;;;;;;5045236;28;20502;-40
2022/01/12 12:01:49;;;;;;;7.65;5.43;;;;;;;;;;5044988;28;20033;-38
2022/01/12 12:04:27;;;;;;;9.07;6.00;;;;;;;;;;5045019;28;20829;-39
2022/01/12 12:07:03;;;;;;;8.02;5.60;;;;;;;;;;5044499;28;20029;-39
2022/01/12 12:09:54;;;;;;;7.95;5.97;;;;;;;;;;5044834;28;20056;-38
2022/01/12 12:12:33;;;;;;;8.15;5.70;;;;;;;;;;5044991;28;20032;-40
2022/01/12 12:15:02;;;;;;;7.93;5.97;;;;;;;;;;5044997;28;20033;-39
2022/01/12 12:17:29;;;;;;;8.10;5.35;;;;;;;;;;5035287;28;20488;-39
2022/01/12 12:19:55;;;;;;;7.63;5.38;;;;;;;;;;5024777;28;20029;-34
2022/01/12 12:22:27;;;;;;;8.93;6.03;;;;;;;;;;5024983;28;20033;-41
2022/01/12 12:25:01;;;;;;;8.57;5.45;;;;;;;;;;5024791;28;20069;-40
2022/01/12 12:27:28;;;;;;;6.55;4.90;;;;;;;;;;5024871;28;20426;-39
2022/01/12 12:29:53;;;;;;;9.48;5.40;;;;;;;;;;5024842;28;20029;-39
2022/01/12 12:32:19;;;;;;;8.75;5.72;;;;;;;;;;5024636;28;20030;-39
2022/01/12 12:34:46;;;;;;;7.95;5.60;;;;;;;;;;5025250;28;20033;-37
2022/01/12 12:37:13;;;;;;;7.57;5.30;;;;;;;;;;5026613;28;20033;-35
2022/01/12 12:39:40;;;;;;;8.38;5.45;;;;;;;;;;5028909;28;20541;-39
2022/01/12 12:42:21;;;;;;;7.07;4.97;;;;;;;;;;5028755;28;20181;-38
2022/01/12 12:44:47;;;;;;;6.45;4.72;;;;;;;;;;5028596;28;20029;-38
2022/01/12 12:47:18;;;;;;;7.15;4.90;;;;;;;;;;5028351;28;20030;-38
2022/01/12 12:49:50;;;;;;;7.85;5.40;;;;;;;;;;5028560;28;20031;-39
2022/01/12 12:52:22;;;;;;;8.40;5.65;;;;;;;;;;5028771;28;20222;-36
2022/01/12 12:54:48;;;;;;;7.10;5.13;;;;;;;;;;5028883;28;20072;-41
2022/01/12 12:57:20;;;;;;;8.45;5.00;;;;;;;;;;5028331;28;20492;-38
2022/01/12 12:59:49;;;;;;;6.82;4.60;;;;;;;;;;5028353;28;20091;-38
2022/01/12 13:02:15;;;;;;;6.88;4.75;;;;;;;;;;5028896;28;20041;-39
2022/01/12 13:04:40;;;;;;;6.65;4.85;;;;;;;;;;5028127;28;20421;-39
2022/01/12 13:07:17;;;;;;;6.60;4.95;;;;;;;;;;5027149;28;20025;-38
2022/01/12 13:09:43;;;;;;;6.63;4.70;;;;;;;;;;5028071;28;20072;-35
2022/01/12 13:12:09;;;;;;;6.75;5.00;;;;;;;;;;5027754;28;20488;-41
2022/01/12 13:14:45;;;;;;;6.28;4.13;;;;;;;;;;5028225;28;20040;-40
2022/01/12 13:17:11;;;;;;;7.55;4.97;;;;;;;;;;5028265;28;20060;-41
2022/01/12 13:22:28;;;;;;;6.40;4.40;;;;;;;;;;5027864;28;20029;-38
2022/01/12 13:24:55;;;;;;;6.53;4.35;;;;;;;;;;5027651;28;20768;-40
2022/01/12 13:27:22;;;;;;;7.00;5.35;;;;;;;;;;5010213;28;20025;-38
2022/01/12 13:29:48;;;;;;;6.82;4.75;;;;;;;;;;5026587;28;20029;-38
2022/01/12 13:32:13;;;;;;;5.82;4.50;;;;;;;;;;5027984;28;20031;-38
2022/01/12 13:34:42;;;;;;;6.20;4.88;;;;;;;;;;5027492;28;20462;-37
2022/01/12 13:37:15;;;;;;;6.00;4.80;;;;;;;;;;5027599;28;20589;-40
2022/01/12 13:39:42;;;;;;;6.55;4.32;;;;;;;;;;5026740;28;20033;-41
2022/01/12 13:42:07;;;;;;;7.22;4.60;;;;;;;;;;5027602;28;20065;-33
2022/01/12 13:44:33;;;;;;;6.65;4.45;;;;;;;;;;5027359;28;20095;-40
2022/01/12 13:47:09;;;;;;;4.97;4.20;;;;;;;;;;5027345;28;20091;-36
2022/01/12 13:49:35;;;;;;;5.68;4.78;;;;;;;;;;5026608;28;20044;-37
2022/01/12 13:52:07;;;;;;;6.22;4.75;;;;;;;;;;5027193;28;20029;-37
2022/01/12 13:54:51;;;;;;;6.07;4.60;;;;;;;;;;5027258;28;20025;-38
2022/01/12 13:57:18;;;;;;;6.00;4.70;;;;;;;;;;5025942;28;20090;-41
2022/01/12 13:59:52;;;;;;;5.75;4.57;;;;;;;;;;5027287;28;20025;-38
2022/01/12 14:02:20;;;;;;;6.40;4.40;;;;;;;;;;5027173;28;20534;-34
2022/01/12 14:04:54;;;;;;;6.03;4.45;;;;;;;;;;5027236;28;20462;-36
2022/01/12 14:07:23;;;;;;;6.13;4.45;;;;;;;;;;5027446;28;20447;-37
2022/01/12 14:09:58;;;;;;;5.72;4.00;;;;;;;;;;5027131;28;20049;-39
2022/01/12 14:12:26;;;;;;;6.82;4.60;;;;;;;;;;5037783;28;20108;-38
2022/01/12 14:15:00;;;;;;;5.90;4.45;;;;;;;;;;5046836;28;20083;-35
2022/01/12 14:17:30;;;;;;;5.47;4.50;;;;;;;;;;5046920;28;20029;-35
2022/01/12 14:20:22;;;;;;;5.88;4.25;;;;;;;;;;5045688;28;20033;-36
2022/01/12 14:23:01;;;;;;;5.75;4.45;;;;;;;;;;5045615;28;20033;-38
2022/01/12 14:25:42;;;;;;;6.35;4.70;;;;;;;;;;5046891;28;20152;-41
2022/01/12 14:28:15;;;;;;;5.75;4.35;;;;;;;;;;5046510;28;20082;-37
2022/01/12 14:30:42;;;;;;;4.55;3.80;;;;;;;;;;5046348;28;20017;-39
2022/01/12 14:33:07;;;;;;;4.72;3.72;;;;;;;;;;5043719;28;20127;-37
2022/01/12 14:35:34;;;;;;;5.30;4.25;;;;;;;;;;5026508;28;20120;-39
2022/01/12 14:38:00;;;;;;;5.35;4.25;;;;;;;;;;5026348;28;20884;-41
2022/01/12 14:40:25;;;;;;;5.30;4.10;;;;;;;;;;5026246;28;20056;-41
2022/01/12 14:42:53;;;;;;;6.57;4.72;;;;;;;;;;5026647;28;20131;-41
2022/01/12 14:45:25;;;;;;;5.82;4.30;;;;;;;;;;5026498;28;20040;-38
2022/01/12 14:47:52;;;;;;;5.85;4.38;;;;;;;;;;5026515;28;20030;-39
2022/01/12 14:50:18;;;;;;;7.05;5.20;;;;;;;;;;5026057;28;20026;-37
2022/01/12 14:52:44;;;;;;;6.18;4.63;;;;;;;;;;5026182;28;20395;-41
2022/01/12 14:55:10;;;;;;;5.72;4.10;;;;;;;;;;5026296;28;20025;-37
2022/01/12 14:57:36;;;;;;;6.13;4.65;;;;;;;;;;5026121;28;20183;-40
2022/01/12 15:00:07;;;;;;;6.65;4.57;;;;;;;;;;5026160;28;20532;-41
2022/01/12 15:02:33;;;;;;;6.63;4.75;;;;;;;;;;5025916;28;20025;-38
2022/01/12 15:04:59;;;;;;;6.53;4.80;;;;;;;;;;5025897;28;20108;-37
2022/01/12 15:07:24;;;;;;;6.90;4.70;;;;;;;;;;5026285;28;20025;-38
2022/01/12 15:09:50;;;;;;;8.60;4.93;;;;;;;;;;5025771;28;20045;-40
2022/01/12 15:12:23;;;;;;;7.78;5.50;;;;;;;;;;5025642;28;20522;-34
2022/01/12 15:14:59;;;;;;;7.90;5.47;;;;;;;;;;5025864;28;20496;-41
2022/01/12 15:17:26;;;;;;;7.95;4.88;;;;;;;;;;5026159;28;20052;-38
2022/01/12 15:19:52;;;;;;;8.10;5.70;;;;;;;;;;5025804;28;20032;-40
2022/01/12 15:22:17;;;;;;;6.85;5.28;;;;;;;;;;5025383;28;20037;-38
2022/01/12 15:24:43;;;;;;;7.75;5.32;;;;;;;;;;5025676;28;20044;-38
2022/01/12 15:27:08;;;;;;;7.75;5.28;;;;;;;;;;5025623;28;20033;-39
2022/01/12 15:29:34;;;;;;;7.13;5.18;;;;;;;;;;5025550;28;20048;-40
2022/01/12 15:32:00;;;;;;;7.85;6.00;;;;;;;;;;5025678;28;20033;-33
2022/01/12 15:34:25;;;;;;;7.80;5.82;;;;;;;;;;5025217;28;20033;-40
2022/01/12 15:36:51;;;;;;;6.75;5.30;;;;;;;;;;5025806;28;20026;-43
2022/01/12 15:39:16;;;;;;;6.85;5.28;;;;;;;;;;5025333;28;20041;-38
2022/01/12 15:41:42;;;;;;;7.50;5.45;;;;;;;;;;5025401;28;20029;-39
2022/01/12 15:44:08;;;;;;;7.68;5.30;;;;;;;;;;5040820;28;20128;-39
2022/01/12 15:46:33;;;;;;;7.70;5.60;;;;;;;;;;5045274;28;20025;-39
2022/01/12 15:48:59;;;;;;;6.82;4.90;;;;;;;;;;5045221;28;20521;-37
2022/01/12 15:51:24;;;;;;;7.68;5.63;;;;;;;;;;5045171;28;20040;-38
2022/01/12 15:53:50;;;;;;;7.53;5.50;;;;;;;;;;5045355;28;20033;-37
2022/01/12 15:56:18;;;;;;;8.35;5.80;;;;;;;;;;5044873;28;20039;-39
2022/01/12 15:58:43;;;;;;;6.55;5.32;;;;;;;;;;5045015;28;20025;-39
2022/01/12 16:01:09;;;;;;;8.27;5.82;;;;;;;;;;5044917;28;20029;-38
2022/01/12 16:03:34;;;;;;;8.15;6.07;;;;;;;;;;5044732;28;20063;-35
2022/01/12 16:06:00;;;;;;;9.75;6.95;;;;;;;;;;5044980;28;20427;-39
2022/01/12 16:08:27;;;;;;;9.15;7.05;;;;;;;;;;5044530;28;20495;-40
2022/01/12 16:10:52;;;;;;;8.38;6.65;;;;;;;;;;5039249;28;20028;-36
2022/01/12 16:13:19;;;;;;;16.35;13.10;;;;;;;;;;5044659;28;20029;-42
2022/01/12 16:15:45;;;;;;;16.77;11.10;;;;;;;;;;5044497;28;20086;-40
2022/01/12 16:18:11;;;;;;;12.80;9.13;;;;;;;;;;5044329;28;20033;-38
2022/01/12 16:20:36;;;;;;;15.27;9.00;;;;;;;;;;5044490;28;20466;-40
2022/01/12 16:23:04;;;;;;;13.30;8.70;;;;;;;;;;5043282;28;20025;-39
2022/01/12 16:25:30;;;;;;;12.18;8.25;;;;;;;;;;5044940;28;20086;-38
2022/01/12 16:27:56;;;;;;;17.25;8.98;;;;;;;;;;5044886;28;20028;-37
2022/01/12 16:30:45;;;;;;;12.13;8.07;;;;;;;;;;5043401;28;20031;-37
2022/01/12 16:33:10;;;;;;;11.18;7.50;;;;;;;;;;5044125;28;20108;-37
2022/01/12 16:35:37;;;;;;;13.20;7.95;;;;;;;;;;5042817;28;20629;-39
2022/01/12 16:38:03;;;;;;;12.30;7.65;;;;;;;;;;5042354;28;20029;-40